• Join FlightAware (Why Join?)
  • Login
  • US Flag 
11:47PM EDT


 

Airport Tracker/Info


-or-


 

Live Flight TrackerFlight Track Log ✈ SWA2166 ✈ 27-Apr-2013 ✈ KATL - KDEN

Flight Track Log - Related Links

Times and Time Zones

All times are in EDT time to prevent confusion due to time zone crossing. See the SWA2166 flight status page for this flight to view local times or setup timezone preferences in your user account.

Time Position Orientation Groundspeed Altitude Reporting Facility
EDT Latitude Longitude Course Direction KTS MPH feet Rate Location/Type
06:46AM 33.6497 -84.3808 67° East 436 502 2,600  Level Atlanta Center
06:47AM 33.6667 -84.3333 67° East 223 257 4,300 1,980 Climbing Atlanta TRACON
06:48AM 33.7167 -84.2833 40° Northeast 259 298 6,600 2,880 Climbing Atlanta TRACON
06:50AM 33.8125 -84.3689 323° Northwest 236 272 13,500 2,820 Climbing Atlanta Center
06:51AM 33.8081 -84.4789 267° West 266 306 15,200 2,400 Climbing Atlanta Center
06:52AM 33.8117 -84.6064 272° West 312 359 18,400 2,940 Climbing Atlanta Center
06:53AM 33.8111 -84.7214 270° West 341 392 21,100 2,400 Climbing Atlanta Center
06:54AM 33.8083 -84.8514 269° West 368 423 23,300 2,160 Climbing Atlanta Center
06:55AM 33.7969 -84.9786 264° West 394 453 25,500 1,980 Climbing Atlanta Center
06:56AM 33.7814 -85.1111 262° West 407 468 27,300 1,740 Climbing Atlanta Center
06:57AM 33.7736 -85.2508 266° West 414 476 29,000 1,740 Climbing Atlanta Center
06:58AM 33.7953 -85.3886 281° West 419 482 30,800 1,680 Climbing Atlanta Center
06:59AM 33.8167 -85.5114 282° West 426 490 32,400 1,740 Climbing Atlanta Center
07:00AM 33.8400 -85.6469 282° West 426 490 34,300 1,920 Climbing Atlanta Center
07:01AM 33.8781 -85.7753 290° West 416 479 36,300 1,740 Climbing Atlanta Center
07:02AM 33.9161 -85.8911 292° West 392 451 37,800 840 Climbing Atlanta Center
07:03AM 33.9539 -86.0122 291° West 387 445 38,000 60 Climbing Atlanta Center
07:04AM 33.9936 -86.1358 291° West 387 445 38,000  Level Atlanta Center
07:05AM 34.0267 -86.2594 288° West 392 451 38,000  Level Atlanta Center
07:06AM 34.0619 -86.3883 288° West 392 451 38,000  Level Atlanta Center
07:09AM 34.1525 -86.7128 289° West 399 459 38,000  Level Memphis Center
07:10AM 34.1875 -86.8394 289° West 399 459 38,000  Level Memphis Center
07:11AM 34.2225 -86.9736 288° West 408 470 38,000  Level Memphis Center
07:12AM 34.2592 -87.1003 289° West 413 475 38,000  Level Memphis Center
07:13AM 34.2892 -87.2047 289° West 413 475 38,000  Level Memphis Center
07:14AM 34.3281 -87.3392 289° West 395 455 38,000  Level Memphis Center
07:15AM 34.3667 -87.4786 289° West 395 455 38,000  Level Memphis Center
07:16AM 34.3989 -87.6033 287° West 395 455 38,000  Level Memphis Center
07:17AM 34.4306 -87.7283 287° West 395 455 38,000  Level Memphis Center
07:18AM 34.4667 -87.8531 289° West 395 455 38,000  Level Memphis Center
07:19AM 34.4983 -87.9808 287° West 395 455 38,000  Level Memphis Center
07:20AM 34.5342 -88.1083 289° West 395 455 38,000  Level Memphis Center
07:21AM 34.5656 -88.2311 287° West 401 461 38,000  Level Memphis Center
07:22AM 34.5989 -88.3564 288° West 401 461 38,000  Level Memphis Center
07:23AM 34.6322 -88.4842 288° West 396 456 38,000  Level Memphis Center
07:24AM 34.6675 -88.6147 288° West 376 433 38,000  Level Memphis Center
07:25AM 34.7003 -88.7353 288° West 376 433 38,000  Level Memphis Center
07:26AM 34.7247 -88.8411 286° West 376 433 38,000  Level Memphis Center
07:27AM 34.7553 -88.9567 288° West 371 427 38,000  Level Memphis Center
07:28AM 34.7858 -89.0750 287° West 371 427 38,000  Level Memphis Center
07:29AM 34.8183 -89.1936 288° West 371 427 38,000  Level Memphis Center
07:30AM 34.8486 -89.3119 287° West 371 427 38,000  Level Memphis Center
07:31AM 34.8786 -89.4331 287° West 371 427 38,000  Level Memphis Center
07:32AM 34.9108 -89.5492 289° West 371 427 38,000  Level Memphis Center
07:33AM 34.9408 -89.6731 286° West 371 427 38,000  Level Memphis Center
07:34AM 34.9664 -89.8047 283° West 371 427 38,000  Level Memphis Center
07:35AM 35.0044 -89.9236 291° West 402 463 38,000  Level Memphis Center
07:36AM 35.0361 -90.0450 288° West 388 447 38,000  Level Memphis Center
07:37AM 35.0739 -90.1617 292° West 382 440 38,000  Level Memphis Center
07:38AM 35.1117 -90.2833 291° West 382 440 38,000  Level Memphis Center
07:39AM 35.1492 -90.4053 291° West 387 445 38,000  Level Memphis Center
07:40AM 35.1886 -90.5297 291° West 387 445 38,000  Level Memphis Center
07:41AM 35.2322 -90.6672 291° West 392 451 38,000  Level Memphis Center
07:42AM 35.2717 -90.7944 291° West 392 451 38,000  Level Memphis Center
07:43AM 35.3086 -90.9219 290° West 397 457 38,000  Level Memphis Center
07:44AM 35.3497 -91.0469 292° West 397 457 38,000  Level Memphis Center
07:45AM 35.3844 -91.1669 290° West 387 445 38,000  Level Memphis Center
07:46AM 35.4253 -91.2947 291° West 394 453 38,000  Level Memphis Center
07:47AM 35.4558 -91.3919 291° West 399 459 38,000  Level Memphis Center
07:48AM 35.5025 -91.5456 291° West 399 459 38,000  Level Memphis Center
07:49AM 35.5408 -91.6761 290° West 399 459 38,000  Level Memphis Center
07:50AM 35.5811 -91.8044 291° West 404 465 38,000  Level Memphis Center
07:51AM 35.6169 -91.9353 289° West 409 471 38,000  Level Memphis Center
07:52AM 35.6569 -92.0664 291° West 409 471 38,000  Level Memphis Center
07:53AM 35.6947 -92.1950 290° West 409 471 38,000  Level Memphis Center
07:54AM 35.7306 -92.3133 290° West 409 471 38,000  Level Memphis Center
07:55AM 35.7681 -92.4447 289° West 409 471 38,000  Level Memphis Center
07:56AM 35.8053 -92.5736 290° West 409 471 38,000  Level Memphis Center
07:57AM 35.8425 -92.7028 290° West 404 465 38,000  Level Memphis Center
07:58AM 35.8797 -92.8292 290° West 404 465 38,000  Level Memphis Center
07:59AM 35.9167 -92.9586 289° West 404 465 38,000  Level Memphis Center
08:00AM 35.9536 -93.0853 290° West 404 465 38,000  Level Memphis Center
08:01AM 35.9906 -93.2122 290° West 399 459 38,000  Level Memphis Center
08:02AM 36.0269 -93.3419 289° West 399 459 38,000  Level Memphis Center
08:03AM 36.0617 -93.4664 289° West 399 459 38,000  Level Memphis Center
08:04AM 36.0978 -93.5961 289° West 399 459 38,000  Level Memphis Center
08:05AM 36.1339 -93.7261 289° West 399 459 38,000  Level Memphis Center
08:06AM 36.1722 -93.8536 290° West 399 459 38,000  Level Memphis Center
08:08AM 36.2550 -94.1408 290° West 400 460 38,000  Level Kansas City Center
08:09AM 36.3100 -94.2617 299° West 402 463 38,000  Level Kansas City Center
08:10AM 36.3650 -94.3814 300° West 400 460 38,000  Level Kansas City Center
08:11AM 36.4197 -94.5017 300° West 401 461 38,000  Level Kansas City Center
08:12AM 36.4731 -94.6211 299° West 398 458 38,000  Level Kansas City Center
08:13AM 36.5275 -94.7406 300° West 398 458 38,000  Level Kansas City Center
08:14AM 36.5797 -94.8592 299° West 394 453 38,000  Level Kansas City Center
08:15AM 36.6322 -94.9775 299° West 393 452 38,000  Level Kansas City Center
08:16AM 36.6856 -95.0958 299° West 394 453 38,000  Level Kansas City Center
08:17AM 36.7378 -95.2167 298° West 397 457 38,000  Level Kansas City Center
08:18AM 36.7936 -95.3400 300° West 405 466 38,000  Level Kansas City Center
08:19AM 36.8467 -95.4633 298° West 407 468 38,000  Level Kansas City Center
08:20AM 36.9122 -95.6142 299° West 411 473 38,000  Level Kansas City Center
08:21AM 36.9661 -95.7375 299° West 407 468 38,000  Level Kansas City Center
08:22AM 37.0200 -95.8636 298° West 410 472 38,000  Level Kansas City Center
08:23AM 37.0733 -95.9889 298° West 408 470 38,000  Level Kansas City Center
08:24AM 37.1292 -96.1169 299° West 415 478 38,000  Level Kansas City Center
08:25AM 37.1836 -96.2464 298° West 417 480 38,000  Level Kansas City Center
08:26AM 37.2386 -96.3739 298° West 415 478 38,000  Level Kansas City Center
08:27AM 37.2939 -96.5050 298° West 416 479 38,000  Level Kansas City Center
08:28AM 37.3486 -96.6347 298° West 418 481 38,000  Level Kansas City Center
08:29AM 37.4039 -96.7653 298° West 421 484 38,000  Level Kansas City Center
08:30AM 37.4603 -96.8956 299° West 425 489 38,000  Level Kansas City Center
08:31AM 37.5150 -97.0258 298° West 422 486 38,000  Level Kansas City Center
08:32AM 37.5694 -97.1572 298° West 421 484 38,000  Level Kansas City Center
08:33AM 37.6236 -97.2864 298° West 418 481 38,000  Level Kansas City Center
08:34AM 37.6767 -97.4164 297° West 418 481 38,000  Level Kansas City Center
08:35AM 37.7308 -97.5511 297° West 415 478 38,000  Level Kansas City Center
08:36AM 37.7528 -97.6917 281° West 412 474 38,000  Level Kansas City Center
08:37AM 37.7617 -97.8347 275° West 409 471 38,000  Level Kansas City Center
08:38AM 37.7728 -98.0072 275° West 409 471 38,000  Level Kansas City Center
08:39AM 37.7836 -98.1553 275° West 412 474 38,000  Level Kansas City Center
08:40AM 37.7911 -98.2708 275° West 410 472 38,000  Level Kansas City Center
08:41AM 37.8003 -98.4156 275° West 412 474 38,000  Level Kansas City Center
08:42AM 37.8100 -98.5917 274° West 416 479 38,000  Level Kansas City Center
08:43AM 37.8178 -98.7397 274° West 420 483 38,000  Level Kansas City Center
08:44AM 37.8269 -98.8889 274° West 423 487 38,000  Level Kansas City Center
08:45AM 37.8364 -99.0389 275° West 427 491 38,000  Level Kansas City Center
08:46AM 37.8453 -99.1900 274° West 430 495 38,000  Level Kansas City Center
08:47AM 37.8533 -99.3408 274° West 430 495 38,000  Level Kansas City Center
08:48AM 37.8617 -99.4894 274° West 428 493 38,000  Level Kansas City Center
08:49AM 37.8700 -99.6561 274° West 426 490 38,000  Level Kansas City Center
08:50AM 37.8775 -99.8011 274° West 430 495 38,000  Level Kansas City Center
08:51AM 37.8844 -99.9444 274° West 429 494 38,000  Level Kansas City Center
08:52AM 37.8922 -100.1122 273° West 429 494 38,000  Level Kansas City Center
08:53AM 37.8989 -100.2569 273° West 430 495 38,000  Level Kansas City Center
08:54AM 37.9069 -100.4233 274° West 429 494 38,000  Level Kansas City Center
08:56AM 37.9131 -100.5664 273° West 428 493 38,000  Level Kansas City Center
08:57AM 37.9192 -100.7097 273° West 429 494 38,000  Level Kansas City Center
08:58AM 37.9714 -100.8614 294° West 425 489 38,000  Level Kansas City Center
08:58AM 37.9964 -100.9253 296° West 426 490 38,000  Level Denver Center
08:59AM 38.0547 -101.0483 301° West 428 493 38,000  Level Denver Center
09:00AM 38.1239 -101.1900 302° West 425 489 38,000  Level Denver Center
09:01AM 38.1817 -101.3122 301° West 424 488 38,000  Level Denver Center
09:02AM 38.2414 -101.4339 302° West 425 489 38,000  Level Denver Center
09:03AM 38.3094 -101.5764 301° West 423 487 38,000  Level Denver Center
09:04AM 38.3678 -101.6986 301° West 424 488 38,000  Level Denver Center
09:05AM 38.4267 -101.8225 301° West 425 489 38,000  Level Denver Center
09:06AM 38.4942 -101.9653 301° West 422 486 38,000  Level Denver Center
09:07AM 38.5519 -102.0869 301° West 420 483 38,000  Level Denver Center
09:08AM 38.6086 -102.2108 300° West 421 484 38,000 -360 Level Denver Center
09:09AM 38.6758 -102.3553 301° West 422 486 37,300 -900 Descending Denver Center
09:10AM 38.7333 -102.4783 301° West 422 486 36,300 -960 Descending Denver Center
09:11AM 38.7914 -102.6042 301° West 427 491 35,400 -960 Descending Denver Center
09:12AM 38.8600 -102.7531 301° West 434 499 34,400 -720 Descending Denver Center
09:13AM 38.9194 -102.8797 301° West 437 503 34,000 -240 Descending Denver Center
09:14AM 38.9803 -103.0164 300° West 437 503 34,000  Level Denver Center
09:15AM 39.0425 -103.1514 301° West 437 503 34,000 -1,200 Level Denver Center
09:16AM 39.1056 -103.2875 301° West 438 504 31,600 -2,340 Descending Denver Center
09:17AM 39.1653 -103.4222 300° West 432 497 29,300 -2,340 Descending Denver Center
09:18AM 39.2256 -103.5544 301° West 426 490 26,900 -2,340 Descending Denver Center
09:19AM 39.2839 -103.6836 300° West 416 479 24,700 -2,220 Descending Denver Center
09:20AM 39.3375 -103.8053 300° West 393 452 22,500 -1,680 Descending Denver Center
09:21AM 39.3906 -103.9267 300° West 371 427 21,300 -1,320 Descending Denver Center
09:22AM 39.4467 -104.0219 307° West 329 379 19,900 -1,500 Descending Denver Center
09:23AM 39.5008 -104.1108 308° West 314 361 18,300 -1,440 Descending Denver Center
09:24AM 39.5533 -104.1997 307° West 310 357 17,000 -660 Descending Denver Center
09:25AM 39.6078 -104.2892 308° West 314 361 17,000 -600 Level Denver Center
09:26AM 39.6589 -104.3781 307° West 306 352 15,900 -1,380 Descending Denver Center
09:27AM 39.7106 -104.4628 308° West 299 344 14,300 -1,620 Descending Denver Center
09:28AM 39.7767 -104.5236 325° Northwest 285 328 12,700 -1,440 Descending Denver Center
09:29AM 39.8533 -104.5222 North 278 320 11,500 -900 Descending Denver Center
09:30AM 39.9000 -104.5167 North 254 292 11,200 -660 Descending Denver TRACON
09:31AM 39.9500 -104.5167 360° North 230 265 10,500 -1,200 Descending Denver TRACON
09:32AM 40.0000 -104.5667 323° Northwest 214 246 8,800 -1,380 Descending Denver TRACON
09:33AM 40.0000 -104.6333 270° West 214 246 7,700 -1,200 Descending Denver TRACON
09:33AM 39.9917 -104.6606 248° West 198 228 7,300 -1,020 Descending Denver Center
09:34AM 39.9528 -104.6861 207° Southwest 169 194 6,300 -900 Descending Denver Center
09:35AM 39.9078 -104.6867 181° South 162 186 5,600 -540 Descending Denver Center
09:36AM 39.8772 -104.6878 182° South 131 151 5,300 -300 Descending Denver Center
09:38AM 39.8617 -104.6732 North  Level Estimated
09:45AM 39.8617 -104.6732 North  Level Estimated
09:46AM 39.8617 -104.6732 North  Level Estimated